sensor_id;sensor_type;location;lat;lon;timestamp;P1;durP1;ratioP1;P2;durP2;ratioP2
73869;SDS011;64924;42.140;24.762;2023-04-03T00:00:49;4.40;;;1.90;;
73869;SDS011;64924;42.140;24.762;2023-04-03T00:03:16;4.45;;;2.17;;
73869;SDS011;64924;42.140;24.762;2023-04-03T00:05:42;4.93;;;1.83;;
73869;SDS011;64924;42.140;24.762;2023-04-03T00:08:07;6.93;;;2.30;;
73869;SDS011;64924;42.140;24.762;2023-04-03T00:10:34;3.75;;;1.98;;
73869;SDS011;64924;42.140;24.762;2023-04-03T00:13:01;5.57;;;2.33;;
73869;SDS011;64924;42.140;24.762;2023-04-03T00:15:27;4.85;;;2.22;;
73869;SDS011;64924;42.140;24.762;2023-04-03T00:17:52;3.35;;;1.60;;
73869;SDS011;64924;42.140;24.762;2023-04-03T00:20:18;3.30;;;1.92;;
73869;SDS011;64924;42.140;24.762;2023-04-03T00:22:44;3.78;;;1.65;;
73869;SDS011;64924;42.140;24.762;2023-04-03T00:25:09;3.47;;;1.30;;
73869;SDS011;64924;42.140;24.762;2023-04-03T00:27:38;3.47;;;1.30;;
73869;SDS011;64924;42.140;24.762;2023-04-03T00:30:05;2.50;;;1.63;;
73869;SDS011;64924;42.140;24.762;2023-04-03T00:32:32;5.63;;;1.40;;
73869;SDS011;64924;42.140;24.762;2023-04-03T00:34:58;4.68;;;1.45;;
73869;SDS011;64924;42.140;24.762;2023-04-03T00:37:23;3.78;;;1.67;;
73869;SDS011;64924;42.140;24.762;2023-04-03T00:39:49;2.63;;;1.30;;
73869;SDS011;64924;42.140;24.762;2023-04-03T00:42:15;5.88;;;1.70;;
73869;SDS011;64924;42.140;24.762;2023-04-03T00:47:07;2.20;;;1.45;;
73869;SDS011;64924;42.140;24.762;2023-04-03T00:49:36;5.05;;;1.45;;
73869;SDS011;64924;42.140;24.762;2023-04-03T00:52:03;3.80;;;1.70;;
73869;SDS011;64924;42.140;24.762;2023-04-03T00:54:32;3.20;;;1.63;;
73869;SDS011;64924;42.140;24.762;2023-04-03T00:57:01;5.40;;;2.00;;
73869;SDS011;64924;42.140;24.762;2023-04-03T00:59:30;3.25;;;1.90;;
73869;SDS011;64924;42.140;24.762;2023-04-03T01:01:59;3.47;;;1.70;;
73869;SDS011;64924;42.140;24.762;2023-04-03T01:04:29;4.57;;;1.70;;
73869;SDS011;64924;42.140;24.762;2023-04-03T01:06:59;3.45;;;1.63;;
73869;SDS011;64924;42.140;24.762;2023-04-03T01:09:30;8.07;;;1.80;;
73869;SDS011;64924;42.140;24.762;2023-04-03T01:14:42;5.35;;;1.60;;
73869;SDS011;64924;42.140;24.762;2023-04-03T01:20:10;4.10;;;1.73;;
73869;SDS011;64924;42.140;24.762;2023-04-03T01:25:34;5.55;;;1.58;;
73869;SDS011;64924;42.140;24.762;2023-04-03T01:28:04;5.22;;;1.73;;
73869;SDS011;64924;42.140;24.762;2023-04-03T01:30:32;6.32;;;1.50;;
73869;SDS011;64924;42.140;24.762;2023-04-03T01:35:26;5.55;;;1.60;;
73869;SDS011;64924;42.140;24.762;2023-04-03T01:37:52;12.45;;;2.10;;
73869;SDS011;64924;42.140;24.762;2023-04-03T01:40:18;7.15;;;2.22;;
73869;SDS011;64924;42.140;24.762;2023-04-03T01:42:44;8.38;;;2.40;;
73869;SDS011;64924;42.140;24.762;2023-04-03T01:45:10;5.45;;;2.40;;
73869;SDS011;64924;42.140;24.762;2023-04-03T01:47:36;4.63;;;2.13;;
73869;SDS011;64924;42.140;24.762;2023-04-03T01:50:01;5.47;;;2.95;;
73869;SDS011;64924;42.140;24.762;2023-04-03T01:52:27;6.90;;;2.80;;
73869;SDS011;64924;42.140;24.762;2023-04-03T01:54:53;5.10;;;2.30;;
73869;SDS011;64924;42.140;24.762;2023-04-03T01:57:18;7.43;;;2.72;;
73869;SDS011;64924;42.140;24.762;2023-04-03T01:59:44;4.72;;;2.38;;
73869;SDS011;64924;42.140;24.762;2023-04-03T02:02:09;6.22;;;2.50;;
73869;SDS011;64924;42.140;24.762;2023-04-03T02:04:37;5.47;;;2.53;;
73869;SDS011;64924;42.140;24.762;2023-04-03T02:07:03;9.18;;;2.50;;
73869;SDS011;64924;42.140;24.762;2023-04-03T02:09:29;5.88;;;2.15;;
73869;SDS011;64924;42.140;24.762;2023-04-03T02:11:54;3.13;;;2.08;;
73869;SDS011;64924;42.140;24.762;2023-04-03T02:14:20;5.47;;;2.00;;
73869;SDS011;64924;42.140;24.762;2023-04-03T02:16:46;7.63;;;2.20;;
73869;SDS011;64924;42.140;24.762;2023-04-03T02:19:12;3.92;;;2.40;;
73869;SDS011;64924;42.140;24.762;2023-04-03T02:21:37;5.00;;;3.08;;
73869;SDS011;64924;42.140;24.762;2023-04-03T02:24:03;5.72;;;3.13;;
73869;SDS011;64924;42.140;24.762;2023-04-03T02:26:29;6.68;;;3.28;;
73869;SDS011;64924;42.140;24.762;2023-04-03T02:28:54;5.03;;;2.70;;
73869;SDS011;64924;42.140;24.762;2023-04-03T02:31:20;9.05;;;2.88;;
73869;SDS011;64924;42.140;24.762;2023-04-03T02:33:46;8.40;;;2.95;;
73869;SDS011;64924;42.140;24.762;2023-04-03T02:36:11;4.47;;;2.38;;
73869;SDS011;64924;42.140;24.762;2023-04-03T02:38:37;5.75;;;2.72;;
73869;SDS011;64924;42.140;24.762;2023-04-03T02:41:03;5.35;;;2.90;;
73869;SDS011;64924;42.140;24.762;2023-04-03T02:43:30;6.78;;;2.50;;
73869;SDS011;64924;42.140;24.762;2023-04-03T02:45:56;4.78;;;2.80;;
73869;SDS011;64924;42.140;24.762;2023-04-03T02:48:21;5.95;;;3.00;;
73869;SDS011;64924;42.140;24.762;2023-04-03T02:50:47;5.88;;;2.58;;
73869;SDS011;64924;42.140;24.762;2023-04-03T02:53:13;6.50;;;2.38;;
73869;SDS011;64924;42.140;24.762;2023-04-03T02:55:38;5.88;;;2.70;;
73869;SDS011;64924;42.140;24.762;2023-04-03T02:58:04;7.25;;;2.78;;
73869;SDS011;64924;42.140;24.762;2023-04-03T03:00:30;5.30;;;3.15;;
73869;SDS011;64924;42.140;24.762;2023-04-03T03:02:55;5.70;;;3.15;;
73869;SDS011;64924;42.140;24.762;2023-04-03T03:05:21;12.85;;;4.07;;
73869;SDS011;64924;42.140;24.762;2023-04-03T03:07:46;15.38;;;5.43;;
73869;SDS011;64924;42.140;24.762;2023-04-03T03:10:12;12.25;;;3.88;;
73869;SDS011;64924;42.140;24.762;2023-04-03T03:12:38;8.35;;;3.40;;
73869;SDS011;64924;42.140;24.762;2023-04-03T03:15:03;9.85;;;4.43;;
73869;SDS011;64924;42.140;24.762;2023-04-03T03:17:29;7.95;;;3.85;;
73869;SDS011;64924;42.140;24.762;2023-04-03T03:19:55;5.85;;;3.15;;
73869;SDS011;64924;42.140;24.762;2023-04-03T03:22:20;7.07;;;3.53;;
73869;SDS011;64924;42.140;24.762;2023-04-03T03:24:45;6.22;;;3.53;;
73869;SDS011;64924;42.140;24.762;2023-04-03T03:27:11;8.35;;;3.72;;
73869;SDS011;64924;42.140;24.762;2023-04-03T03:29:37;8.18;;;3.72;;
73869;SDS011;64924;42.140;24.762;2023-04-03T03:32:02;8.10;;;3.97;;
73869;SDS011;64924;42.140;24.762;2023-04-03T03:34:28;10.15;;;4.63;;
73869;SDS011;64924;42.140;24.762;2023-04-03T03:36:53;9.48;;;3.85;;
73869;SDS011;64924;42.140;24.762;2023-04-03T03:39:20;9.75;;;4.10;;
73869;SDS011;64924;42.140;24.762;2023-04-03T03:41:45;14.32;;;4.60;;
73869;SDS011;64924;42.140;24.762;2023-04-03T03:44:10;11.85;;;4.22;;
73869;SDS011;64924;42.140;24.762;2023-04-03T03:46:36;10.05;;;4.43;;
73869;SDS011;64924;42.140;24.762;2023-04-03T03:49:02;12.43;;;5.32;;
73869;SDS011;64924;42.140;24.762;2023-04-03T03:51:27;11.88;;;5.70;;
73869;SDS011;64924;42.140;24.762;2023-04-03T03:53:52;26.92;;;5.75;;
73869;SDS011;64924;42.140;24.762;2023-04-03T03:56:18;16.13;;;5.20;;
73869;SDS011;64924;42.140;24.762;2023-04-03T03:58:43;11.13;;;5.07;;
73869;SDS011;64924;42.140;24.762;2023-04-03T04:01:09;10.90;;;6.13;;
73869;SDS011;64924;42.140;24.762;2023-04-03T04:03:34;15.90;;;6.55;;
73869;SDS011;64924;42.140;24.762;2023-04-03T04:06:00;16.63;;;6.30;;
73869;SDS011;64924;42.140;24.762;2023-04-03T04:08:25;11.82;;;6.97;;
73869;SDS011;64924;42.140;24.762;2023-04-03T04:10:51;13.85;;;6.82;;
73869;SDS011;64924;42.140;24.762;2023-04-03T04:13:16;17.70;;;6.57;;
73869;SDS011;64924;42.140;24.762;2023-04-03T04:15:42;24.30;;;7.53;;
73869;SDS011;64924;42.140;24.762;2023-04-03T04:18:08;19.23;;;7.57;;
73869;SDS011;64924;42.140;24.762;2023-04-03T04:20:34;13.52;;;5.70;;
73869;SDS011;64924;42.140;24.762;2023-04-03T04:22:59;13.18;;;6.35;;
73869;SDS011;64924;42.140;24.762;2023-04-03T04:25:25;11.73;;;5.80;;
73869;SDS011;64924;42.140;24.762;2023-04-03T04:27:50;15.18;;;6.72;;
73869;SDS011;64924;42.140;24.762;2023-04-03T04:30:16;9.70;;;5.47;;
73869;SDS011;64924;42.140;24.762;2023-04-03T04:32:41;19.20;;;6.38;;
73869;SDS011;64924;42.140;24.762;2023-04-03T04:35:07;17.13;;;6.95;;
73869;SDS011;64924;42.140;24.762;2023-04-03T04:37:33;16.23;;;6.10;;
73869;SDS011;64924;42.140;24.762;2023-04-03T04:39:58;11.82;;;6.45;;
73869;SDS011;64924;42.140;24.762;2023-04-03T04:42:24;19.38;;;6.78;;
73869;SDS011;64924;42.140;24.762;2023-04-03T04:44:49;15.90;;;6.50;;
73869;SDS011;64924;42.140;24.762;2023-04-03T04:47:15;19.05;;;7.07;;
73869;SDS011;64924;42.140;24.762;2023-04-03T04:49:41;22.73;;;7.68;;
73869;SDS011;64924;42.140;24.762;2023-04-03T04:52:07;18.42;;;8.38;;
73869;SDS011;64924;42.140;24.762;2023-04-03T04:54:32;20.58;;;7.60;;
73869;SDS011;64924;42.140;24.762;2023-04-03T04:56:58;21.10;;;7.50;;
73869;SDS011;64924;42.140;24.762;2023-04-03T04:59:23;14.35;;;7.05;;
73869;SDS011;64924;42.140;24.762;2023-04-03T05:01:49;16.77;;;6.57;;
73869;SDS011;64924;42.140;24.762;2023-04-03T05:04:15;17.77;;;6.07;;
73869;SDS011;64924;42.140;24.762;2023-04-03T05:06:40;16.27;;;7.63;;
73869;SDS011;64924;42.140;24.762;2023-04-03T05:09:06;15.05;;;6.63;;
73869;SDS011;64924;42.140;24.762;2023-04-03T05:11:32;20.95;;;8.63;;
73869;SDS011;64924;42.140;24.762;2023-04-03T05:13:57;22.05;;;8.77;;
73869;SDS011;64924;42.140;24.762;2023-04-03T05:16:23;37.00;;;14.68;;
73869;SDS011;64924;42.140;24.762;2023-04-03T05:18:48;32.60;;;14.65;;
73869;SDS011;64924;42.140;24.762;2023-04-03T05:21:14;41.20;;;15.70;;
73869;SDS011;64924;42.140;24.762;2023-04-03T05:23:39;32.40;;;14.57;;
73869;SDS011;64924;42.140;24.762;2023-04-03T05:26:05;31.63;;;14.18;;
73869;SDS011;64924;42.140;24.762;2023-04-03T05:28:30;24.33;;;13.43;;
73869;SDS011;64924;42.140;24.762;2023-04-03T05:30:57;29.90;;;12.20;;
73869;SDS011;64924;42.140;24.762;2023-04-03T05:33:24;21.63;;;11.13;;
73869;SDS011;64924;42.140;24.762;2023-04-03T05:35:51;24.48;;;10.35;;
73869;SDS011;64924;42.140;24.762;2023-04-03T05:38:17;21.42;;;10.05;;
73869;SDS011;64924;42.140;24.762;2023-04-03T05:40:43;23.17;;;10.13;;
73869;SDS011;64924;42.140;24.762;2023-04-03T05:43:08;13.82;;;8.57;;
73869;SDS011;64924;42.140;24.762;2023-04-03T05:45:34;20.52;;;7.60;;
73869;SDS011;64924;42.140;24.762;2023-04-03T05:48:00;17.17;;;9.32;;
73869;SDS011;64924;42.140;24.762;2023-04-03T05:50:25;15.85;;;8.52;;
73869;SDS011;64924;42.140;24.762;2023-04-03T05:52:51;23.75;;;9.20;;
73869;SDS011;64924;42.140;24.762;2023-04-03T05:55:20;13.63;;;6.40;;
73869;SDS011;64924;42.140;24.762;2023-04-03T05:57:45;19.45;;;9.73;;
73869;SDS011;64924;42.140;24.762;2023-04-03T06:00:15;16.55;;;9.45;;
73869;SDS011;64924;42.140;24.762;2023-04-03T06:02:41;27.35;;;9.80;;
73869;SDS011;64924;42.140;24.762;2023-04-03T06:05:07;23.73;;;8.95;;
73869;SDS011;64924;42.140;24.762;2023-04-03T06:07:34;19.60;;;9.45;;
73869;SDS011;64924;42.140;24.762;2023-04-03T06:10:00;18.88;;;8.48;;
73869;SDS011;64924;42.140;24.762;2023-04-03T06:12:26;20.40;;;9.50;;
73869;SDS011;64924;42.140;24.762;2023-04-03T06:14:53;20.40;;;9.25;;
73869;SDS011;64924;42.140;24.762;2023-04-03T06:17:19;16.33;;;9.40;;
73869;SDS011;64924;42.140;24.762;2023-04-03T06:19:45;19.67;;;9.50;;
73869;SDS011;64924;42.140;24.762;2023-04-03T06:22:10;20.70;;;10.90;;
73869;SDS011;64924;42.140;24.762;2023-04-03T06:24:36;20.83;;;10.75;;
73869;SDS011;64924;42.140;24.762;2023-04-03T06:27:02;27.70;;;13.95;;
73869;SDS011;64924;42.140;24.762;2023-04-03T06:29:28;32.08;;;14.02;;
73869;SDS011;64924;42.140;24.762;2023-04-03T06:31:53;31.77;;;13.07;;
73869;SDS011;64924;42.140;24.762;2023-04-03T06:34:19;26.63;;;13.43;;
73869;SDS011;64924;42.140;24.762;2023-04-03T06:36:45;32.22;;;14.82;;
73869;SDS011;64924;42.140;24.762;2023-04-03T06:39:16;32.50;;;14.27;;
73869;SDS011;64924;42.140;24.762;2023-04-03T06:41:47;28.65;;;13.07;;
73869;SDS011;64924;42.140;24.762;2023-04-03T06:44:14;27.63;;;11.57;;
73869;SDS011;64924;42.140;24.762;2023-04-03T06:46:41;21.33;;;11.65;;
73869;SDS011;64924;42.140;24.762;2023-04-03T06:49:08;22.35;;;11.57;;
73869;SDS011;64924;42.140;24.762;2023-04-03T06:51:34;27.63;;;10.57;;
73869;SDS011;64924;42.140;24.762;2023-04-03T06:54:00;25.92;;;10.43;;
73869;SDS011;64924;42.140;24.762;2023-04-03T06:56:27;20.25;;;8.18;;
73869;SDS011;64924;42.140;24.762;2023-04-03T06:58:54;13.70;;;6.07;;
73869;SDS011;64924;42.140;24.762;2023-04-03T07:01:22;9.95;;;4.68;;
73869;SDS011;64924;42.140;24.762;2023-04-03T07:03:50;10.15;;;5.78;;
73869;SDS011;64924;42.140;24.762;2023-04-03T07:06:16;12.77;;;6.78;;
73869;SDS011;64924;42.140;24.762;2023-04-03T07:08:43;6.35;;;3.40;;
73869;SDS011;64924;42.140;24.762;2023-04-03T07:11:09;11.43;;;4.00;;
73869;SDS011;64924;42.140;24.762;2023-04-03T07:13:36;8.15;;;3.33;;
73869;SDS011;64924;42.140;24.762;2023-04-03T07:16:03;8.00;;;3.90;;
73869;SDS011;64924;42.140;24.762;2023-04-03T07:18:30;8.75;;;3.50;;
73869;SDS011;64924;42.140;24.762;2023-04-03T07:20:56;11.95;;;4.65;;
73869;SDS011;64924;42.140;24.762;2023-04-03T07:23:22;7.32;;;4.60;;
73869;SDS011;64924;42.140;24.762;2023-04-03T07:25:49;8.25;;;3.88;;
73869;SDS011;64924;42.140;24.762;2023-04-03T07:28:17;9.13;;;3.95;;
73869;SDS011;64924;42.140;24.762;2023-04-03T07:30:45;9.63;;;3.75;;
73869;SDS011;64924;42.140;24.762;2023-04-03T07:33:12;8.55;;;3.63;;
73869;SDS011;64924;42.140;24.762;2023-04-03T07:35:39;8.85;;;3.00;;
73869;SDS011;64924;42.140;24.762;2023-04-03T07:38:05;8.40;;;3.58;;
73869;SDS011;64924;42.140;24.762;2023-04-03T07:40:31;7.20;;;3.40;;
73869;SDS011;64924;42.140;24.762;2023-04-03T07:42:57;12.25;;;3.85;;
73869;SDS011;64924;42.140;24.762;2023-04-03T07:45:23;8.90;;;3.47;;
73869;SDS011;64924;42.140;24.762;2023-04-03T07:47:49;8.45;;;3.88;;
73869;SDS011;64924;42.140;24.762;2023-04-03T07:50:15;6.35;;;3.20;;
73869;SDS011;64924;42.140;24.762;2023-04-03T07:52:42;6.25;;;3.33;;
73869;SDS011;64924;42.140;24.762;2023-04-03T07:55:07;8.15;;;2.65;;
73869;SDS011;64924;42.140;24.762;2023-04-03T07:57:33;7.05;;;3.22;;
73869;SDS011;64924;42.140;24.762;2023-04-03T07:59:58;8.07;;;3.80;;
73869;SDS011;64924;42.140;24.762;2023-04-03T08:02:24;8.05;;;2.95;;
73869;SDS011;64924;42.140;24.762;2023-04-03T08:04:50;8.00;;;3.80;;
73869;SDS011;64924;42.140;24.762;2023-04-03T08:07:15;7.78;;;3.35;;
73869;SDS011;64924;42.140;24.762;2023-04-03T08:09:41;7.75;;;3.22;;
73869;SDS011;64924;42.140;24.762;2023-04-03T08:12:07;9.68;;;4.03;;
73869;SDS011;64924;42.140;24.762;2023-04-03T08:14:32;10.35;;;4.47;;
73869;SDS011;64924;42.140;24.762;2023-04-03T08:16:59;9.85;;;4.70;;
73869;SDS011;64924;42.140;24.762;2023-04-03T08:19:25;10.45;;;4.20;;
73869;SDS011;64924;42.140;24.762;2023-04-03T08:21:51;11.27;;;4.53;;
73869;SDS011;64924;42.140;24.762;2023-04-03T08:24:17;8.38;;;4.65;;
73869;SDS011;64924;42.140;24.762;2023-04-03T08:26:42;17.30;;;5.75;;
73869;SDS011;64924;42.140;24.762;2023-04-03T08:29:07;20.20;;;7.65;;
73869;SDS011;64924;42.140;24.762;2023-04-03T08:31:33;18.10;;;6.38;;
73869;SDS011;64924;42.140;24.762;2023-04-03T08:33:58;12.75;;;5.70;;
73869;SDS011;64924;42.140;24.762;2023-04-03T08:36:25;11.77;;;5.25;;
73869;SDS011;64924;42.140;24.762;2023-04-03T08:38:52;12.55;;;5.63;;
73869;SDS011;64924;42.140;24.762;2023-04-03T08:46:35;10.98;;;4.78;;
73869;SDS011;64924;42.140;24.762;2023-04-03T08:49:34;8.80;;;4.03;;
73869;SDS011;64924;42.140;24.762;2023-04-03T08:52:05;9.65;;;4.63;;
73869;SDS011;64924;42.140;24.762;2023-04-03T08:54:55;9.32;;;4.43;;
73869;SDS011;64924;42.140;24.762;2023-04-03T08:57:30;13.38;;;4.25;;
73869;SDS011;64924;42.140;24.762;2023-04-03T09:00:00;5.82;;;3.47;;
73869;SDS011;64924;42.140;24.762;2023-04-03T09:07:58;11.65;;;4.25;;
73869;SDS011;64924;42.140;24.762;2023-04-03T09:10:28;10.55;;;4.85;;
73869;SDS011;64924;42.140;24.762;2023-04-03T09:15:47;8.23;;;4.47;;
73869;SDS011;64924;42.140;24.762;2023-04-03T09:26:04;6.32;;;2.80;;
73869;SDS011;64924;42.140;24.762;2023-04-03T09:28:35;5.50;;;2.80;;
73869;SDS011;64924;42.140;24.762;2023-04-03T09:31:14;6.43;;;2.97;;
73869;SDS011;64924;42.140;24.762;2023-04-03T09:33:49;7.72;;;2.95;;
73869;SDS011;64924;42.140;24.762;2023-04-03T09:39:08;5.15;;;2.40;;
73869;SDS011;64924;42.140;24.762;2023-04-03T09:41:37;8.52;;;2.08;;
73869;SDS011;64924;42.140;24.762;2023-04-03T09:44:04;9.05;;;2.72;;
73869;SDS011;64924;42.140;24.762;2023-04-03T09:46:46;8.50;;;2.83;;
73869;SDS011;64924;42.140;24.762;2023-04-03T09:49:12;8.02;;;3.42;;
73869;SDS011;64924;42.140;24.762;2023-04-03T09:51:38;10.25;;;2.88;;
73869;SDS011;64924;42.140;24.762;2023-04-03T09:54:46;10.60;;;2.70;;
73869;SDS011;64924;42.140;24.762;2023-04-03T09:56:57;5.97;;;2.45;;
73869;SDS011;64924;42.140;24.762;2023-04-03T09:59:29;3.65;;;2.00;;
73869;SDS011;64924;42.140;24.762;2023-04-03T10:02:00;7.05;;;2.42;;
73869;SDS011;64924;42.140;24.762;2023-04-03T10:04:39;10.10;;;2.90;;
73869;SDS011;64924;42.140;24.762;2023-04-03T10:07:28;8.02;;;3.92;;
73869;SDS011;64924;42.140;24.762;2023-04-03T10:10:03;7.03;;;3.15;;
73869;SDS011;64924;42.140;24.762;2023-04-03T10:12:42;9.20;;;3.03;;
73869;SDS011;64924;42.140;24.762;2023-04-03T10:15:11;12.57;;;3.85;;
73869;SDS011;64924;42.140;24.762;2023-04-03T10:18:02;14.48;;;3.38;;
73869;SDS011;64924;42.140;24.762;2023-04-03T10:20:46;10.38;;;3.40;;
73869;SDS011;64924;42.140;24.762;2023-04-03T10:23:21;6.88;;;3.38;;
73869;SDS011;64924;42.140;24.762;2023-04-03T10:29:04;8.00;;;3.55;;
73869;SDS011;64924;42.140;24.762;2023-04-03T10:31:53;6.70;;;3.70;;
73869;SDS011;64924;42.140;24.762;2023-04-03T10:34:22;5.53;;;4.03;;
73869;SDS011;64924;42.140;24.762;2023-04-03T10:37:16;10.63;;;4.00;;
73869;SDS011;64924;42.140;24.762;2023-04-03T10:42:38;9.20;;;3.70;;
73869;SDS011;64924;42.140;24.762;2023-04-03T10:45:31;8.80;;;3.83;;
73869;SDS011;64924;42.140;24.762;2023-04-03T10:51:15;6.72;;;3.22;;
73869;SDS011;64924;42.140;24.762;2023-04-03T10:53:55;6.75;;;3.60;;
73869;SDS011;64924;42.140;24.762;2023-04-03T10:59:18;11.13;;;3.88;;
73869;SDS011;64924;42.140;24.762;2023-04-03T11:01:45;6.50;;;3.95;;
73869;SDS011;64924;42.140;24.762;2023-04-03T11:04:14;8.73;;;4.63;;
73869;SDS011;64924;42.140;24.762;2023-04-03T11:06:53;6.03;;;3.58;;
73869;SDS011;64924;42.140;24.762;2023-04-03T11:09:26;6.10;;;3.75;;
73869;SDS011;64924;42.140;24.762;2023-04-03T11:11:58;8.90;;;3.00;;
73869;SDS011;64924;42.140;24.762;2023-04-03T11:14:30;6.43;;;2.95;;
73869;SDS011;64924;42.140;24.762;2023-04-03T11:19:34;5.82;;;3.10;;
73869;SDS011;64924;42.140;24.762;2023-04-03T11:24:50;5.28;;;3.55;;
73869;SDS011;64924;42.140;24.762;2023-04-03T11:27:43;7.78;;;4.40;;
73869;SDS011;64924;42.140;24.762;2023-04-03T11:30:17;5.60;;;3.20;;
73869;SDS011;64924;42.140;24.762;2023-04-03T11:35:53;6.10;;;3.10;;
73869;SDS011;64924;42.140;24.762;2023-04-03T11:38:26;8.23;;;3.75;;
73869;SDS011;64924;42.140;24.762;2023-04-03T11:40:56;10.20;;;3.47;;
73869;SDS011;64924;42.140;24.762;2023-04-03T11:43:27;7.30;;;3.35;;
73869;SDS011;64924;42.140;24.762;2023-04-03T11:46:04;7.65;;;2.80;;
73869;SDS011;64924;42.140;24.762;2023-04-03T11:51:45;4.53;;;3.20;;
73869;SDS011;64924;42.140;24.762;2023-04-03T11:53:54;5.60;;;2.97;;
73869;SDS011;64924;42.140;24.762;2023-04-03T11:59:30;8.50;;;4.25;;
73869;SDS011;64924;42.140;24.762;2023-04-03T12:01:44;8.77;;;4.55;;
73869;SDS011;64924;42.140;24.762;2023-04-03T12:04:15;7.05;;;5.20;;
73869;SDS011;64924;42.140;24.762;2023-04-03T12:09:32;6.23;;;4.67;;
73869;SDS011;64924;42.140;24.762;2023-04-03T12:14:55;9.45;;;5.47;;
73869;SDS011;64924;42.140;24.762;2023-04-03T12:17:37;9.40;;;6.43;;
73869;SDS011;64924;42.140;24.762;2023-04-03T12:20:23;8.32;;;6.30;;
73869;SDS011;64924;42.140;24.762;2023-04-03T12:23:24;12.77;;;7.03;;
73869;SDS011;64924;42.140;24.762;2023-04-03T12:28:47;10.68;;;6.10;;
73869;SDS011;64924;42.140;24.762;2023-04-03T12:31:15;10.13;;;5.43;;
73869;SDS011;64924;42.140;24.762;2023-04-03T12:36:11;13.75;;;6.72;;
73869;SDS011;64924;42.140;24.762;2023-04-03T12:41:37;9.13;;;6.18;;
73869;SDS011;64924;42.140;24.762;2023-04-03T12:44:30;14.88;;;7.25;;
73869;SDS011;64924;42.140;24.762;2023-04-03T12:47:22;11.38;;;8.40;;
73869;SDS011;64924;42.140;24.762;2023-04-03T12:49:50;14.07;;;8.52;;
73869;SDS011;64924;42.140;24.762;2023-04-03T12:55:02;11.65;;;8.07;;
73869;SDS011;64924;42.140;24.762;2023-04-03T13:00:21;15.90;;;9.90;;
73869;SDS011;64924;42.140;24.762;2023-04-03T13:02:53;19.75;;;11.38;;
73869;SDS011;64924;42.140;24.762;2023-04-03T13:05:19;21.63;;;13.90;;
73869;SDS011;64924;42.140;24.762;2023-04-03T13:07:52;27.73;;;17.65;;
73869;SDS011;64924;42.140;24.762;2023-04-03T13:10:23;32.63;;;17.33;;
73869;SDS011;64924;42.140;24.762;2023-04-03T13:17:50;29.13;;;16.45;;
73869;SDS011;64924;42.140;24.762;2023-04-03T13:20:25;25.15;;;17.13;;
73869;SDS011;64924;42.140;24.762;2023-04-03T13:23:04;25.38;;;13.40;;
73869;SDS011;64924;42.140;24.762;2023-04-03T13:25:33;19.73;;;11.52;;
73869;SDS011;64924;42.140;24.762;2023-04-03T13:28:04;17.77;;;11.00;;
73869;SDS011;64924;42.140;24.762;2023-04-03T13:30:33;14.30;;;8.95;;
73869;SDS011;64924;42.140;24.762;2023-04-03T13:33:02;16.70;;;8.68;;
73869;SDS011;64924;42.140;24.762;2023-04-03T13:38:07;14.63;;;8.60;;
73869;SDS011;64924;42.140;24.762;2023-04-03T13:43:33;15.23;;;10.10;;
73869;SDS011;64924;42.140;24.762;2023-04-03T13:46:05;15.35;;;9.90;;
73869;SDS011;64924;42.140;24.762;2023-04-03T13:48:50;15.52;;;9.63;;
73869;SDS011;64924;42.140;24.762;2023-04-03T13:51:19;30.20;;;10.25;;
73869;SDS011;64924;42.140;24.762;2023-04-03T13:53:56;18.58;;;11.00;;
73869;SDS011;64924;42.140;24.762;2023-04-03T13:56:25;21.17;;;12.02;;
73869;SDS011;64924;42.140;24.762;2023-04-03T13:59:31;24.23;;;14.40;;
73869;SDS011;64924;42.140;24.762;2023-04-03T14:04:31;21.77;;;13.90;;
73869;SDS011;64924;42.140;24.762;2023-04-03T14:07:13;21.15;;;14.65;;
73869;SDS011;64924;42.140;24.762;2023-04-03T14:09:41;25.00;;;16.30;;
73869;SDS011;64924;42.140;24.762;2023-04-03T14:12:40;19.30;;;14.48;;
73869;SDS011;64924;42.140;24.762;2023-04-03T14:15:01;22.42;;;14.27;;
73869;SDS011;64924;42.140;24.762;2023-04-03T14:17:29;20.00;;;13.73;;
73869;SDS011;64924;42.140;24.762;2023-04-03T14:19:56;25.08;;;14.98;;
73869;SDS011;64924;42.140;24.762;2023-04-03T14:22:27;17.33;;;12.65;;
73869;SDS011;64924;42.140;24.762;2023-04-03T14:24:55;14.27;;;11.95;;
73869;SDS011;64924;42.140;24.762;2023-04-03T14:29:53;16.48;;;12.95;;
73869;SDS011;64924;42.140;24.762;2023-04-03T14:32:21;13.65;;;11.38;;
73869;SDS011;64924;42.140;24.762;2023-04-03T14:34:47;14.05;;;11.05;;
73869;SDS011;64924;42.140;24.762;2023-04-03T14:37:15;20.13;;;13.43;;
73869;SDS011;64924;42.140;24.762;2023-04-03T14:39:43;18.08;;;10.85;;
73869;SDS011;64924;42.140;24.762;2023-04-03T14:42:12;20.52;;;14.18;;
73869;SDS011;64924;42.140;24.762;2023-04-03T14:44:42;17.85;;;13.32;;
73869;SDS011;64924;42.140;24.762;2023-04-03T14:47:14;19.20;;;13.52;;
73869;SDS011;64924;42.140;24.762;2023-04-03T14:49:43;21.80;;;14.43;;
73869;SDS011;64924;42.140;24.762;2023-04-03T14:52:29;17.38;;;13.68;;
73869;SDS011;64924;42.140;24.762;2023-04-03T14:54:56;20.85;;;15.20;;
73869;SDS011;64924;42.140;24.762;2023-04-03T14:57:23;24.02;;;15.38;;
73869;SDS011;64924;42.140;24.762;2023-04-03T14:59:51;25.80;;;17.08;;
73869;SDS011;64924;42.140;24.762;2023-04-03T15:05:02;27.35;;;17.27;;
73869;SDS011;64924;42.140;24.762;2023-04-03T15:07:30;23.90;;;17.08;;
73869;SDS011;64924;42.140;24.762;2023-04-03T15:10:23;22.85;;;17.02;;
73869;SDS011;64924;42.140;24.762;2023-04-03T15:12:49;25.90;;;16.63;;
73869;SDS011;64924;42.140;24.762;2023-04-03T15:15:17;23.40;;;16.75;;
73869;SDS011;64924;42.140;24.762;2023-04-03T15:17:44;25.83;;;17.15;;
73869;SDS011;64924;42.140;24.762;2023-04-03T15:20:17;26.50;;;18.55;;
73869;SDS011;64924;42.140;24.762;2023-04-03T15:22:44;26.02;;;17.67;;
73869;SDS011;64924;42.140;24.762;2023-04-03T15:25:10;24.38;;;15.23;;
73869;SDS011;64924;42.140;24.762;2023-04-03T15:27:36;22.95;;;14.48;;
73869;SDS011;64924;42.140;24.762;2023-04-03T15:30:03;22.73;;;15.30;;
73869;SDS011;64924;42.140;24.762;2023-04-03T15:32:30;23.40;;;15.20;;
73869;SDS011;64924;42.140;24.762;2023-04-03T15:34:56;29.77;;;17.00;;
73869;SDS011;64924;42.140;24.762;2023-04-03T15:37:22;22.80;;;15.65;;
73869;SDS011;64924;42.140;24.762;2023-04-03T15:39:48;23.60;;;14.32;;
73869;SDS011;64924;42.140;24.762;2023-04-03T15:42:13;25.98;;;14.77;;
73869;SDS011;64924;42.140;24.762;2023-04-03T15:44:39;24.27;;;13.85;;
73869;SDS011;64924;42.140;24.762;2023-04-03T15:47:04;20.63;;;10.88;;
73869;SDS011;64924;42.140;24.762;2023-04-03T15:49:30;19.33;;;8.77;;
73869;SDS011;64924;42.140;24.762;2023-04-03T15:51:59;13.88;;;7.70;;
73869;SDS011;64924;42.140;24.762;2023-04-03T15:54:25;11.00;;;6.55;;
73869;SDS011;64924;42.140;24.762;2023-04-03T15:56:51;18.17;;;6.95;;
73869;SDS011;64924;42.140;24.762;2023-04-03T15:59:17;10.93;;;6.68;;
73869;SDS011;64924;42.140;24.762;2023-04-03T16:01:42;12.40;;;7.47;;
73869;SDS011;64924;42.140;24.762;2023-04-03T16:04:08;11.07;;;7.30;;
73869;SDS011;64924;42.140;24.762;2023-04-03T16:06:35;15.27;;;7.88;;
73869;SDS011;64924;42.140;24.762;2023-04-03T16:09:02;17.40;;;8.32;;
73869;SDS011;64924;42.140;24.762;2023-04-03T16:11:29;18.23;;;9.18;;
73869;SDS011;64924;42.140;24.762;2023-04-03T16:13:55;16.48;;;9.30;;